Friday, February 23, 2018, 2:52 AM GMT
Back to Local

CYHU, Saint Hubert Airport

Location: , , Canada Lat: 45.517
Local Time: 2:52 AM GMT ( 2:52 GMT) Lon: -73.417
Time Zone: GMT Elev: 88 ft

Show me the last for .
Show Decoded

2018-02-23 02:00 METAR CYHU 230200Z AUTO 00000KT 9SM CLR M08/M11 A3075 RMK SLP415 =
2018-02-23 01:00 METAR CYHU 230100Z AUTO 14002KT 9SM CLR M07/M12 A3075 RMK SLP415 =
2018-02-23 00:00 METAR CYHU 230000Z AUTO 14003KT 9SM CLR M07/M12 A3074 RMK SLP412 =
2018-02-22 23:00 METAR CYHU 222300Z AUTO 11003KT 9SM CLR M06/M11 A3073 RMK SLP411 =
2018-02-22 22:00 METAR CYHU 222200Z AUTO 00000KT 9SM BKN220 M05/M12 A3073 RMK SLP410 =
2018-02-22 21:00 METAR CYHU 222100Z AUTO 06003KT 9SM FEW170 BKN200 M05/M12 A3072 RMK SLP407 =
2018-02-22 20:00 METAR CYHU 222000Z AUTO 03003KT 350V050 9SM CLR M05/M13 A3075 RMK SLP415 =
2018-02-22 19:00 METAR CYHU 221900Z AUTO 06003KT 010V080 9SM BKN140 BKN190 M05/M13 A3075 RMK
                 SLP415 =
2018-02-22 18:00 METAR CYHU 221800Z AUTO 35004KT 9SM FEW130 M06/M13 A3077 RMK SLP422 =
2018-02-22 17:00 METAR CYHU 221700Z AUTO 04004KT 9SM BKN150 BKN170 M06/M13 A3076 RMK SLP420 =
2018-02-22 16:00 METAR CYHU 221600Z AUTO 03008KT 9SM OVC160 M07/M13 A3078 RMK SLP427 =
2018-02-22 15:00 METAR CYHU 221500Z AUTO 05007KT 9SM OVC170 M07/M13 A3078 RMK SLP425 =
2018-02-22 14:00 METAR CYHU 221400Z AUTO 07008KT 9SM FEW160 BKN190 BKN210 M07/M13 A3078 RMK
                 SLP425 =
2018-02-22 13:00 METAR CYHU 221300Z AUTO 05006KT 9SM BKN220 M07/M14 A3076 RMK SLP421 =
2018-02-22 12:00 METAR CYHU 221200Z AUTO 03007KT 9SM OVC230 M07/M12 A3074 RMK PRESRR SLP413 =
2018-02-22 11:00 METAR CYHU 221100Z AUTO 04006KT 9SM CLR M08/M12 A3072 RMK SLP406 =
2018-02-22 10:00 METAR CYHU 221000Z AUTO 03007KT 9SM CLR M07/M11 A3071 RMK SLP403 =
2018-02-22 09:00 METAR CYHU 220900Z AUTO 36005KT 9SM CLR M06/M11 A3069 RMK SLP395 =
2018-02-22 08:00 METAR CYHU 220800Z AUTO 35006KT 9SM CLR M05/M11 A3068 RMK SLP392 =
2018-02-22 07:00 METAR CYHU 220700Z AUTO 02005KT 9SM CLR M05/M11 A3066 RMK SLP385 =
2018-02-22 06:00 METAR CYHU 220600Z AUTO 33005KT 9SM CLR M03/M11 A3064 RMK SLP379 =
2018-02-22 05:00 METAR CYHU 220500Z AUTO 34010KT 9SM CLR M02/M11 A3060 RMK SLP367 =
2018-02-22 04:00 METAR CYHU 220400Z AUTO 32009KT 9SM CLR M01/M08 A3057 RMK SLP354 =

Support USWX by starting your Amazon purchase here.